sensor_id;sensor_type;location;lat;lon;timestamp;pressure;altitude;pressure_sealevel;temperature;humidity
84947;BME280;75241;51.692;5.196;2024-02-14T00:00:52;101416.59;;;7.41;88.60
84947;BME280;75241;51.692;5.196;2024-02-14T00:03:17;101405.22;;;7.43;88.51
84947;BME280;75241;51.692;5.196;2024-02-14T00:05:43;101401.66;;;7.46;88.74
84947;BME280;75241;51.692;5.196;2024-02-14T00:08:08;101404.19;;;7.49;88.71
84947;BME280;75241;51.692;5.196;2024-02-14T00:10:33;101410.22;;;7.51;88.38
84947;BME280;75241;51.692;5.196;2024-02-14T00:12:59;101417.09;;;7.54;88.47
84947;BME280;75241;51.692;5.196;2024-02-14T00:15:24;101401.41;;;7.55;88.47
84947;BME280;75241;51.692;5.196;2024-02-14T00:17:50;101407.44;;;7.57;88.59
84947;BME280;75241;51.692;5.196;2024-02-14T00:20:16;101404.75;;;7.59;88.34
84947;BME280;75241;51.692;5.196;2024-02-14T00:22:41;101395.13;;;7.61;88.58
84947;BME280;75241;51.692;5.196;2024-02-14T00:25:07;101387.22;;;7.64;88.40
84947;BME280;75241;51.692;5.196;2024-02-14T00:27:32;101390.66;;;7.66;88.28
84947;BME280;75241;51.692;5.196;2024-02-14T00:29:58;101393.19;;;7.68;88.30
84947;BME280;75241;51.692;5.196;2024-02-14T00:32:24;101385.31;;;7.69;88.31
84947;BME280;75241;51.692;5.196;2024-02-14T00:34:49;101370.41;;;7.73;88.09
84947;BME280;75241;51.692;5.196;2024-02-14T00:37:15;101379.94;;;7.74;88.12
84947;BME280;75241;51.692;5.196;2024-02-14T00:39:41;101374.63;;;7.77;88.13
84947;BME280;75241;51.692;5.196;2024-02-14T00:42:06;101384.16;;;7.78;88.01
84947;BME280;75241;51.692;5.196;2024-02-14T00:44:31;101384.09;;;7.81;88.19
84947;BME280;75241;51.692;5.196;2024-02-14T00:46:57;101382.28;;;7.83;88.13
84947;BME280;75241;51.692;5.196;2024-02-14T00:49:27;101379.59;;;7.85;87.97
84947;BME280;75241;51.692;5.196;2024-02-14T00:51:52;101383.88;;;7.87;87.81
84947;BME280;75241;51.692;5.196;2024-02-14T00:54:18;101375.94;;;7.90;87.74
84947;BME280;75241;51.692;5.196;2024-02-14T00:56:44;101382.03;;;7.91;87.97
84947;BME280;75241;51.692;5.196;2024-02-14T00:59:10;101383.69;;;7.93;87.50
84947;BME280;75241;51.692;5.196;2024-02-14T01:01:35;101388.00;;;7.94;87.68
84947;BME280;75241;51.692;5.196;2024-02-14T01:04:01;101374.06;;;7.95;87.62
84947;BME280;75241;51.692;5.196;2024-02-14T01:06:26;101386.13;;;8.00;87.69
84947;BME280;75241;51.692;5.196;2024-02-14T01:08:51;101381.75;;;8.00;87.81
84947;BME280;75241;51.692;5.196;2024-02-14T01:11:17;101382.47;;;8.04;87.59
84947;BME280;75241;51.692;5.196;2024-02-14T01:13:42;101385.00;;;8.07;87.36
84947;BME280;75241;51.692;5.196;2024-02-14T01:16:08;101388.44;;;8.09;87.50
84947;BME280;75241;51.692;5.196;2024-02-14T01:18:33;101385.75;;;8.10;87.47
84947;BME280;75241;51.692;5.196;2024-02-14T01:20:58;101386.56;;;8.13;87.38
84947;BME280;75241;51.692;5.196;2024-02-14T01:23:25;101400.44;;;8.15;87.54
84947;BME280;75241;51.692;5.196;2024-02-14T01:25:51;101401.34;;;8.14;87.56
84947;BME280;75241;51.692;5.196;2024-02-14T01:28:16;101392.50;;;8.18;87.54
84947;BME280;75241;51.692;5.196;2024-02-14T01:30:43;101387.22;;;8.19;87.17
84947;BME280;75241;51.692;5.196;2024-02-14T01:33:09;101384.59;;;8.19;87.36
84947;BME280;75241;51.692;5.196;2024-02-14T01:35:35;101402.00;;;8.20;87.17
84947;BME280;75241;51.692;5.196;2024-02-14T01:38:01;101396.66;;;8.23;86.98
84947;BME280;75241;51.692;5.196;2024-02-14T01:40:28;101399.19;;;8.26;87.06
84947;BME280;75241;51.692;5.196;2024-02-14T01:42:53;101399.94;;;8.30;86.87
84947;BME280;75241;51.692;5.196;2024-02-14T01:45:19;101400.84;;;8.29;86.94
84947;BME280;75241;51.692;5.196;2024-02-14T01:47:44;101392.91;;;8.32;86.71
84947;BME280;75241;51.692;5.196;2024-02-14T01:50:10;101413.72;;;8.35;86.82
84947;BME280;75241;51.692;5.196;2024-02-14T01:52:38;101405.88;;;8.35;86.92
84947;BME280;75241;51.692;5.196;2024-02-14T01:55:04;101397.16;;;8.35;87.03
84947;BME280;75241;51.692;5.196;2024-02-14T01:57:31;101396.31;;;8.34;87.24
84947;BME280;75241;51.692;5.196;2024-02-14T01:59:58;101406.91;;;8.30;87.56
84947;BME280;75241;51.692;5.196;2024-02-14T02:02:25;101411.22;;;8.31;87.72
84947;BME280;75241;51.692;5.196;2024-02-14T02:04:52;101406.00;;;8.31;87.85
84947;BME280;75241;51.692;5.196;2024-02-14T02:07:18;101398.16;;;8.31;87.54
84947;BME280;75241;51.692;5.196;2024-02-14T02:09:45;101397.25;;;8.32;87.75
84947;BME280;75241;51.692;5.196;2024-02-14T02:12:10;101405.09;;;8.32;87.92
84947;BME280;75241;51.692;5.196;2024-02-14T02:14:36;101400.75;;;8.32;87.77
84947;BME280;75241;51.692;5.196;2024-02-14T02:17:02;101409.41;;;8.34;87.92
84947;BME280;75241;51.692;5.196;2024-02-14T02:19:30;101403.38;;;8.31;87.87
84947;BME280;75241;51.692;5.196;2024-02-14T02:21:56;101395.47;;;8.34;87.86
84947;BME280;75241;51.692;5.196;2024-02-14T02:24:21;101396.31;;;8.34;87.99
84947;BME280;75241;51.692;5.196;2024-02-14T02:26:46;101398.94;;;8.34;87.77
84947;BME280;75241;51.692;5.196;2024-02-14T02:29:12;101393.72;;;8.34;87.91
84947;BME280;75241;51.692;5.196;2024-02-14T02:31:37;101401.56;;;8.34;87.96
84947;BME280;75241;51.692;5.196;2024-02-14T02:34:03;101404.94;;;8.36;88.11
84947;BME280;75241;51.692;5.196;2024-02-14T02:36:28;101407.63;;;8.35;88.20
84947;BME280;75241;51.692;5.196;2024-02-14T02:38:56;101394.50;;;8.36;87.97
84947;BME280;75241;51.692;5.196;2024-02-14T02:41:21;101406.63;;;8.39;87.90
84947;BME280;75241;51.692;5.196;2024-02-14T02:43:47;101400.53;;;8.38;88.16
84947;BME280;75241;51.692;5.196;2024-02-14T02:46:15;101405.66;;;8.41;88.16
84947;BME280;75241;51.692;5.196;2024-02-14T02:48:40;101402.31;;;8.38;88.41
84947;BME280;75241;51.692;5.196;2024-02-14T02:51:06;101391.78;;;8.39;88.43
84947;BME280;75241;51.692;5.196;2024-02-14T02:53:32;101403.84;;;8.44;88.45
84947;BME280;75241;51.692;5.196;2024-02-14T02:55:57;101394.28;;;8.42;88.68
84947;BME280;75241;51.692;5.196;2024-02-14T02:58:24;101399.47;;;8.44;88.58
84947;BME280;75241;51.692;5.196;2024-02-14T03:00:50;101414.25;;;8.45;88.46
84947;BME280;75241;51.692;5.196;2024-02-14T03:03:15;101402.88;;;8.48;88.64
84947;BME280;75241;51.692;5.196;2024-02-14T03:05:45;101397.59;;;8.49;88.51
84947;BME280;75241;51.692;5.196;2024-02-14T03:08:11;101409.69;;;8.52;88.24
84947;BME280;75241;51.692;5.196;2024-02-14T03:10:41;101408.75;;;8.54;88.13
84947;BME280;75241;51.692;5.196;2024-02-14T03:13:07;101410.34;;;8.59;88.18
84947;BME280;75241;51.692;5.196;2024-02-14T03:15:37;101415.44;;;8.63;87.75
84947;BME280;75241;51.692;5.196;2024-02-14T03:18:02;101409.19;;;8.67;87.65
84947;BME280;75241;51.692;5.196;2024-02-14T03:20:33;101413.50;;;8.68;87.76
84947;BME280;75241;51.692;5.196;2024-02-14T03:22:59;101416.97;;;8.69;87.33
84947;BME280;75241;51.692;5.196;2024-02-14T03:25:24;101413.41;;;8.71;87.57
84947;BME280;75241;51.692;5.196;2024-02-14T03:27:50;101415.16;;;8.71;87.60
84947;BME280;75241;51.692;5.196;2024-02-14T03:30:21;101416.03;;;8.71;87.30
84947;BME280;75241;51.692;5.196;2024-02-14T03:32:47;101414.09;;;8.77;87.36
84947;BME280;75241;51.692;5.196;2024-02-14T03:35:13;101422.72;;;8.79;87.37
84947;BME280;75241;51.692;5.196;2024-02-14T03:37:40;101427.97;;;8.79;87.26
84947;BME280;75241;51.692;5.196;2024-02-14T03:40:07;101421.09;;;8.76;87.32
84947;BME280;75241;51.692;5.196;2024-02-14T03:42:34;101417.50;;;8.79;87.28
84947;BME280;75241;51.692;5.196;2024-02-14T03:44:59;101415.75;;;8.79;87.34
84947;BME280;75241;51.692;5.196;2024-02-14T03:47:33;101426.13;;;8.82;87.29
84947;BME280;75241;51.692;5.196;2024-02-14T03:49:59;101423.38;;;8.85;87.20
84947;BME280;75241;51.692;5.196;2024-02-14T03:52:25;101426.91;;;8.84;87.34
84947;BME280;75241;51.692;5.196;2024-02-14T03:54:51;101421.63;;;8.86;87.30
84947;BME280;75241;51.692;5.196;2024-02-14T03:57:17;101426.75;;;8.89;87.12
84947;BME280;75241;51.692;5.196;2024-02-14T03:59:46;101431.06;;;8.90;87.33
84947;BME280;75241;51.692;5.196;2024-02-14T04:02:12;101433.63;;;8.92;86.96
84947;BME280;75241;51.692;5.196;2024-02-14T04:04:41;101437.88;;;8.94;86.98
84947;BME280;75241;51.692;5.196;2024-02-14T04:07:07;101436.97;;;8.95;87.06
84947;BME280;75241;51.692;5.196;2024-02-14T04:09:34;101426.50;;;8.97;87.04
84947;BME280;75241;51.692;5.196;2024-02-14T04:11:59;101440.34;;;8.99;86.74
84947;BME280;75241;51.692;5.196;2024-02-14T04:14:25;101449.06;;;8.99;86.84
84947;BME280;75241;51.692;5.196;2024-02-14T04:16:50;101453.38;;;9.00;86.70
84947;BME280;75241;51.692;5.196;2024-02-14T04:19:16;101448.97;;;9.02;86.63
84947;BME280;75241;51.692;5.196;2024-02-14T04:21:42;101449.75;;;9.05;86.63
84947;BME280;75241;51.692;5.196;2024-02-14T04:24:08;101445.38;;;9.05;86.72
84947;BME280;75241;51.692;5.196;2024-02-14T04:26:34;101453.22;;;9.05;86.93
84947;BME280;75241;51.692;5.196;2024-02-14T04:28:59;101451.44;;;9.06;86.76
84947;BME280;75241;51.692;5.196;2024-02-14T04:31:25;101459.44;;;9.02;86.99
84947;BME280;75241;51.692;5.196;2024-02-14T04:33:52;101454.13;;;9.04;87.00
84947;BME280;75241;51.692;5.196;2024-02-14T04:36:19;101454.13;;;9.04;87.21
84947;BME280;75241;51.692;5.196;2024-02-14T04:38:46;101461.16;;;9.02;87.35
84947;BME280;75241;51.692;5.196;2024-02-14T04:41:12;101457.72;;;9.01;87.62
84947;BME280;75241;51.692;5.196;2024-02-14T04:43:39;101463.88;;;8.99;87.69
84947;BME280;75241;51.692;5.196;2024-02-14T04:46:05;101456.91;;;8.99;87.84
84947;BME280;75241;51.692;5.196;2024-02-14T04:48:35;101457.81;;;8.98;87.77
84947;BME280;75241;51.692;5.196;2024-02-14T04:51:02;101462.94;;;9.01;87.94
84947;BME280;75241;51.692;5.196;2024-02-14T04:53:28;101471.59;;;9.03;87.97
84947;BME280;75241;51.692;5.196;2024-02-14T04:55:54;101475.97;;;9.03;87.97
84947;BME280;75241;51.692;5.196;2024-02-14T04:58:20;101477.66;;;9.04;88.27
84947;BME280;75241;51.692;5.196;2024-02-14T05:00:45;101480.22;;;9.06;88.12
84947;BME280;75241;51.692;5.196;2024-02-14T05:03:11;101471.53;;;9.05;88.47
84947;BME280;75241;51.692;5.196;2024-02-14T05:05:36;101471.53;;;9.05;88.56
84947;BME280;75241;51.692;5.196;2024-02-14T05:08:04;101475.06;;;9.04;88.77
84947;BME280;75241;51.692;5.196;2024-02-14T05:10:30;101470.78;;;9.01;89.01
84947;BME280;75241;51.692;5.196;2024-02-14T05:12:56;101478.56;;;9.03;88.97
84947;BME280;75241;51.692;5.196;2024-02-14T05:15:22;101471.59;;;9.03;89.03
84947;BME280;75241;51.692;5.196;2024-02-14T05:17:47;101471.63;;;9.02;89.24
84947;BME280;75241;51.692;5.196;2024-02-14T05:20:15;101479.56;;;9.00;89.29
84947;BME280;75241;51.692;5.196;2024-02-14T05:22:41;101483.91;;;9.00;89.41
84947;BME280;75241;51.692;5.196;2024-02-14T05:25:06;101480.44;;;8.99;89.48
84947;BME280;75241;51.692;5.196;2024-02-14T05:27:38;101481.34;;;8.98;89.67
84947;BME280;75241;51.692;5.196;2024-02-14T05:30:04;101484.03;;;8.97;89.77
84947;BME280;75241;51.692;5.196;2024-02-14T05:32:34;101488.47;;;8.95;90.01
84947;BME280;75241;51.692;5.196;2024-02-14T05:35:00;101467.63;;;8.92;90.20
84947;BME280;75241;51.692;5.196;2024-02-14T05:37:25;101480.56;;;8.96;90.20
84947;BME280;75241;51.692;5.196;2024-02-14T05:39:53;101479.75;;;8.94;90.17
84947;BME280;75241;51.692;5.196;2024-02-14T05:42:18;101481.53;;;8.94;90.27
84947;BME280;75241;51.692;5.196;2024-02-14T05:44:44;101482.38;;;8.94;90.05
84947;BME280;75241;51.692;5.196;2024-02-14T05:47:09;101499.84;;;8.94;90.08
84947;BME280;75241;51.692;5.196;2024-02-14T05:49:36;101486.75;;;8.94;90.24
84947;BME280;75241;51.692;5.196;2024-02-14T05:52:01;101492.78;;;8.96;90.33
84947;BME280;75241;51.692;5.196;2024-02-14T05:54:27;101491.91;;;8.95;90.17
84947;BME280;75241;51.692;5.196;2024-02-14T05:56:52;101493.63;;;8.96;90.32
84947;BME280;75241;51.692;5.196;2024-02-14T05:59:18;101486.66;;;8.97;90.17
84947;BME280;75241;51.692;5.196;2024-02-14T06:01:43;101497.97;;;8.97;90.25
84947;BME280;75241;51.692;5.196;2024-02-14T06:04:09;101493.59;;;8.98;90.22
84947;BME280;75241;51.692;5.196;2024-02-14T06:06:34;101501.38;;;8.99;90.13
84947;BME280;75241;51.692;5.196;2024-02-14T06:09:01;101500.50;;;8.99;90.24
84947;BME280;75241;51.692;5.196;2024-02-14T06:11:27;101499.59;;;9.00;90.37
84947;BME280;75241;51.692;5.196;2024-02-14T06:13:53;101507.34;;;9.03;90.23
84947;BME280;75241;51.692;5.196;2024-02-14T06:16:19;101513.47;;;9.03;90.28
84947;BME280;75241;51.692;5.196;2024-02-14T06:18:45;101509.94;;;9.05;90.10
84947;BME280;75241;51.692;5.196;2024-02-14T06:21:10;101516.81;;;9.07;90.18
84947;BME280;75241;51.692;5.196;2024-02-14T06:23:35;101516.81;;;9.07;90.18
84947;BME280;75241;51.692;5.196;2024-02-14T06:26:02;101522.00;;;9.09;90.55
84947;BME280;75241;51.692;5.196;2024-02-14T06:28:29;101518.44;;;9.11;90.24
84947;BME280;75241;51.692;5.196;2024-02-14T06:37:16;101527.88;;;9.15;90.24
84947;BME280;75241;51.692;5.196;2024-02-14T06:40:21;101532.25;;;9.15;90.21
84947;BME280;75241;51.692;5.196;2024-02-14T06:42:56;101533.00;;;9.18;90.01
84947;BME280;75241;51.692;5.196;2024-02-14T06:45:23;101542.47;;;9.23;89.96
84947;BME280;75241;51.692;5.196;2024-02-14T06:47:48;101542.41;;;9.24;89.55
84947;BME280;75241;51.692;5.196;2024-02-14T06:50:14;101542.31;;;9.27;89.87
84947;BME280;75241;51.692;5.196;2024-02-14T06:52:39;101542.31;;;9.27;89.80
84947;BME280;75241;51.692;5.196;2024-02-14T06:55:05;101532.66;;;9.28;89.76
84947;BME280;75241;51.692;5.196;2024-02-14T06:57:30;101547.38;;;9.32;89.82
84947;BME280;75241;51.692;5.196;2024-02-14T06:59:55;101537.78;;;9.32;89.63
84947;BME280;75241;51.692;5.196;2024-02-14T07:02:21;101542.13;;;9.32;89.60
84947;BME280;75241;51.692;5.196;2024-02-14T07:04:46;101549.09;;;9.33;89.65
84947;BME280;75241;51.692;5.196;2024-02-14T07:07:12;101552.53;;;9.33;89.77
84947;BME280;75241;51.692;5.196;2024-02-14T07:09:37;101553.34;;;9.36;89.95
84947;BME280;75241;51.692;5.196;2024-02-14T07:12:04;101562.06;;;9.36;89.95
84947;BME280;75241;51.692;5.196;2024-02-14T07:14:30;101549.81;;;9.37;89.91
84947;BME280;75241;51.692;5.196;2024-02-14T07:16:55;101554.16;;;9.38;90.05
84947;BME280;75241;51.692;5.196;2024-02-14T07:19:21;101558.47;;;9.39;89.87
84947;BME280;75241;51.692;5.196;2024-02-14T07:21:46;101562.00;;;9.38;89.92
84947;BME280;75241;51.692;5.196;2024-02-14T07:24:12;101554.31;;;9.33;90.64
84947;BME280;75241;51.692;5.196;2024-02-14T07:26:37;101562.97;;;9.35;90.49
84947;BME280;75241;51.692;5.196;2024-02-14T07:29:05;101553.31;;;9.37;90.40
84947;BME280;75241;51.692;5.196;2024-02-14T07:31:30;101558.47;;;9.39;90.24
84947;BME280;75241;51.692;5.196;2024-02-14T07:33:58;101557.69;;;9.37;90.49
84947;BME280;75241;51.692;5.196;2024-02-14T07:36:23;101555.94;;;9.37;90.07
84947;BME280;75241;51.692;5.196;2024-02-14T07:38:49;101556.78;;;9.38;90.29
84947;BME280;75241;51.692;5.196;2024-02-14T07:41:15;101555.06;;;9.37;90.33
84947;BME280;75241;51.692;5.196;2024-02-14T07:43:40;101562.00;;;9.38;90.09
84947;BME280;75241;51.692;5.196;2024-02-14T07:46:06;101560.25;;;9.38;90.14
84947;BME280;75241;51.692;5.196;2024-02-14T07:48:33;101565.50;;;9.38;90.23
84947;BME280;75241;51.692;5.196;2024-02-14T07:50:58;101560.25;;;9.38;90.08
84947;BME280;75241;51.692;5.196;2024-02-14T07:53:25;101564.47;;;9.42;90.15
84947;BME280;75241;51.692;5.196;2024-02-14T07:55:51;101562.66;;;9.44;90.00
84947;BME280;75241;51.692;5.196;2024-02-14T07:58:16;101564.44;;;9.44;89.91
84947;BME280;75241;51.692;5.196;2024-02-14T08:00:42;101575.69;;;9.46;90.04
84947;BME280;75241;51.692;5.196;2024-02-14T08:03:07;101579.22;;;9.45;90.07
84947;BME280;75241;51.692;5.196;2024-02-14T08:05:33;101574.78;;;9.47;90.05
84947;BME280;75241;51.692;5.196;2024-02-14T08:07:58;101572.94;;;9.49;90.12
84947;BME280;75241;51.692;5.196;2024-02-14T08:10:24;101580.78;;;9.51;89.99
84947;BME280;75241;51.692;5.196;2024-02-14T08:12:49;101589.53;;;9.49;90.28
84947;BME280;75241;51.692;5.196;2024-02-14T08:15:15;101593.91;;;9.49;90.11
84947;BME280;75241;51.692;5.196;2024-02-14T08:17:40;101592.06;;;9.53;90.17
84947;BME280;75241;51.692;5.196;2024-02-14T08:20:06;101590.22;;;9.55;90.11
84947;BME280;75241;51.692;5.196;2024-02-14T08:22:32;101587.59;;;9.55;90.28
84947;BME280;75241;51.692;5.196;2024-02-14T08:24:58;101578.91;;;9.54;90.08
84947;BME280;75241;51.692;5.196;2024-02-14T08:27:24;101583.31;;;9.52;90.45
84947;BME280;75241;51.692;5.196;2024-02-14T08:29:49;101578.91;;;9.54;90.24
84947;BME280;75241;51.692;5.196;2024-02-14T08:32:14;101585.78;;;9.57;90.18
84947;BME280;75241;51.692;5.196;2024-02-14T08:34:40;101584.94;;;9.56;90.38
84947;BME280;75241;51.692;5.196;2024-02-14T08:37:05;101578.72;;;9.59;90.29
84947;BME280;75241;51.692;5.196;2024-02-14T08:39:32;101589.16;;;9.60;90.30
84947;BME280;75241;51.692;5.196;2024-02-14T08:41:57;101595.25;;;9.61;90.35
84947;BME280;75241;51.692;5.196;2024-02-14T08:44:22;101586.59;;;9.59;90.35
84947;BME280;75241;51.692;5.196;2024-02-14T08:46:48;101597.88;;;9.61;90.56
84947;BME280;75241;51.692;5.196;2024-02-14T08:49:14;101597.69;;;9.66;90.42
84947;BME280;75241;51.692;5.196;2024-02-14T08:51:39;101592.41;;;9.67;90.54
84947;BME280;75241;51.692;5.196;2024-02-14T08:54:05;101586.22;;;9.70;90.19
84947;BME280;75241;51.692;5.196;2024-02-14T08:56:34;101595.59;;;9.75;90.22
84947;BME280;75241;51.692;5.196;2024-02-14T08:59:01;101593.72;;;9.79;90.12
84947;BME280;75241;51.692;5.196;2024-02-14T09:01:28;101603.19;;;9.83;89.89
84947;BME280;75241;51.692;5.196;2024-02-14T09:03:54;101602.22;;;9.86;89.86
84947;BME280;75241;51.692;5.196;2024-02-14T09:06:19;101600.34;;;9.89;89.76
84947;BME280;75241;51.692;5.196;2024-02-14T09:08:44;101607.25;;;9.92;89.67
84947;BME280;75241;51.692;5.196;2024-02-14T09:11:10;101606.28;;;9.94;89.60
84947;BME280;75241;51.692;5.196;2024-02-14T09:13:37;101604.44;;;9.97;89.66
84947;BME280;75241;51.692;5.196;2024-02-14T09:16:03;101613.03;;;10.00;89.43
84947;BME280;75241;51.692;5.196;2024-02-14T09:18:28;101620.88;;;10.02;89.15
84947;BME280;75241;51.692;5.196;2024-02-14T09:20:56;101624.22;;;10.05;89.28
84947;BME280;75241;51.692;5.196;2024-02-14T09:23:22;101625.88;;;10.08;89.41
84947;BME280;75241;51.692;5.196;2024-02-14T09:25:48;101623.97;;;10.12;89.38
84947;BME280;75241;51.692;5.196;2024-02-14T09:28:15;101628.22;;;10.16;89.31
84947;BME280;75241;51.692;5.196;2024-02-14T09:30:41;101619.53;;;10.14;89.12
84947;BME280;75241;51.692;5.196;2024-02-14T09:33:07;101615.09;;;10.16;88.95
84947;BME280;75241;51.692;5.196;2024-02-14T09:35:32;101619.25;;;10.21;89.17
84947;BME280;75241;51.692;5.196;2024-02-14T09:37:58;101614.63;;;10.28;88.98
84947;BME280;75241;51.692;5.196;2024-02-14T09:40:24;101624.19;;;10.31;88.91
84947;BME280;75241;51.692;5.196;2024-02-14T09:42:54;101614.47;;;10.33;88.83
84947;BME280;75241;51.692;5.196;2024-02-14T09:45:26;101629.16;;;10.37;88.88
84947;BME280;75241;51.692;5.196;2024-02-14T09:47:53;101626.41;;;10.42;88.82
84947;BME280;75241;51.692;5.196;2024-02-14T09:50:20;101626.28;;;10.45;88.59
84947;BME280;75241;51.692;5.196;2024-02-14T09:52:49;101625.25;;;10.49;88.83
84947;BME280;75241;51.692;5.196;2024-02-14T09:55:15;101625.88;;;10.55;88.70
84947;BME280;75241;51.692;5.196;2024-02-14T09:57:42;101636.19;;;10.60;88.82
84947;BME280;75241;51.692;5.196;2024-02-14T10:00:11;101629.91;;;10.64;88.67
84947;BME280;75241;51.692;5.196;2024-02-14T10:02:40;101629.91;;;10.64;88.37
84947;BME280;75241;51.692;5.196;2024-02-14T10:05:05;101628.03;;;10.68;88.53
84947;BME280;75241;51.692;5.196;2024-02-14T10:07:42;101625.13;;;10.74;88.35
84947;BME280;75241;51.692;5.196;2024-02-14T10:10:08;101624.22;;;10.75;88.20
84947;BME280;75241;51.692;5.196;2024-02-14T10:12:33;101629.44;;;10.77;88.17
84947;BME280;75241;51.692;5.196;2024-02-14T10:14:59;101625.91;;;10.78;88.27
84947;BME280;75241;51.692;5.196;2024-02-14T10:17:25;101634.50;;;10.81;88.27
84947;BME280;75241;51.692;5.196;2024-02-14T10:19:58;101638.72;;;10.85;88.25
84947;BME280;75241;51.692;5.196;2024-02-14T10:22:24;101632.53;;;10.86;88.13
84947;BME280;75241;51.692;5.196;2024-02-14T10:24:51;101638.53;;;10.90;88.10
84947;BME280;75241;51.692;5.196;2024-02-14T10:27:16;101646.41;;;10.90;88.00
84947;BME280;75241;51.692;5.196;2024-02-14T10:29:42;101650.78;;;10.90;87.61
84947;BME280;75241;51.692;5.196;2024-02-14T10:32:09;101649.03;;;10.90;87.75
84947;BME280;75241;51.692;5.196;2024-02-14T10:34:37;101650.66;;;10.93;87.45
84947;BME280;75241;51.692;5.196;2024-02-14T10:37:03;101660.16;;;10.95;87.50
84947;BME280;75241;51.692;5.196;2024-02-14T10:39:32;101654.75;;;11.00;87.52
84947;BME280;75241;51.692;5.196;2024-02-14T10:41:58;101651.25;;;10.99;87.41
84947;BME280;75241;51.692;5.196;2024-02-14T10:44:25;101648.53;;;11.02;87.40
84947;BME280;75241;51.692;5.196;2024-02-14T10:46:52;101650.22;;;11.04;87.31
84947;BME280;75241;51.692;5.196;2024-02-14T10:49:19;101651.06;;;11.04;87.52
84947;BME280;75241;51.692;5.196;2024-02-14T10:51:47;101645.69;;;11.07;87.48
84947;BME280;75241;51.692;5.196;2024-02-14T10:54:14;101641.44;;;11.05;87.77
84947;BME280;75241;51.692;5.196;2024-02-14T10:56:42;101642.34;;;11.04;87.71
84947;BME280;75241;51.692;5.196;2024-02-14T10:59:13;101648.56;;;11.01;87.87
84947;BME280;75241;51.692;5.196;2024-02-14T11:01:41;101656.28;;;11.06;88.04
84947;BME280;75241;51.692;5.196;2024-02-14T11:04:07;101648.25;;;11.09;88.09
84947;BME280;75241;51.692;5.196;2024-02-14T11:06:44;101641.28;;;11.08;88.19
84947;BME280;75241;51.692;5.196;2024-02-14T11:09:11;101638.81;;;11.05;88.12
84947;BME280;75241;51.692;5.196;2024-02-14T11:11:38;101647.50;;;11.07;88.35
84947;BME280;75241;51.692;5.196;2024-02-14T11:14:04;101641.38;;;11.06;88.44
84947;BME280;75241;51.692;5.196;2024-02-14T11:16:31;101643.16;;;11.06;88.48
84947;BME280;75241;51.692;5.196;2024-02-14T11:19:08;101642.28;;;11.05;88.37
84947;BME280;75241;51.692;5.196;2024-02-14T11:21:52;101636.31;;;11.01;88.38
84947;BME280;75241;51.692;5.196;2024-02-14T11:24:17;101629.34;;;11.00;88.54
84947;BME280;75241;51.692;5.196;2024-02-14T11:26:50;101627.63;;;10.99;88.39
84947;BME280;75241;51.692;5.196;2024-02-14T11:29:17;101635.72;;;10.95;88.58
84947;BME280;75241;51.692;5.196;2024-02-14T11:31:46;101633.81;;;10.98;88.51
84947;BME280;75241;51.692;5.196;2024-02-14T11:34:13;101629.44;;;10.99;88.72
84947;BME280;75241;51.692;5.196;2024-02-14T11:36:41;101630.97;;;11.03;88.41
84947;BME280;75241;51.692;5.196;2024-02-14T11:39:07;101636.19;;;11.05;88.57
84947;BME280;75241;51.692;5.196;2024-02-14T11:41:33;101630.94;;;11.05;88.44
84947;BME280;75241;51.692;5.196;2024-02-14T11:44:06;101630.03;;;11.06;88.60
84947;BME280;75241;51.692;5.196;2024-02-14T11:46:32;101637.91;;;11.06;88.53
84947;BME280;75241;51.692;5.196;2024-02-14T11:49:01;101629.94;;;11.07;88.62
84947;BME280;75241;51.692;5.196;2024-02-14T11:51:33;101619.38;;;11.09;88.47
84947;BME280;75241;51.692;5.196;2024-02-14T11:54:01;101620.16;;;11.11;88.74
84947;BME280;75241;51.692;5.196;2024-02-14T11:56:34;101616.59;;;11.13;88.36
84947;BME280;75241;51.692;5.196;2024-02-14T11:59:01;101620.13;;;11.12;88.54
84947;BME280;75241;51.692;5.196;2024-02-14T12:01:31;101611.38;;;11.12;88.80
84947;BME280;75241;51.692;5.196;2024-02-14T12:03:58;101616.72;;;11.10;88.78
84947;BME280;75241;51.692;5.196;2024-02-14T12:06:26;101610.59;;;11.10;88.99
84947;BME280;75241;51.692;5.196;2024-02-14T12:08:53;101611.56;;;11.07;88.92
84947;BME280;75241;51.692;5.196;2024-02-14T12:11:19;101611.66;;;11.06;89.06
84947;BME280;75241;51.692;5.196;2024-02-14T12:13:49;101617.81;;;11.05;89.18
84947;BME280;75241;51.692;5.196;2024-02-14T12:16:15;101609.94;;;11.05;89.39
84947;BME280;75241;51.692;5.196;2024-02-14T12:18:41;101609.94;;;11.05;89.52
84947;BME280;75241;51.692;5.196;2024-02-14T12:21:07;101614.41;;;11.02;89.39
84947;BME280;75241;51.692;5.196;2024-02-14T12:23:33;101615.44;;;10.98;89.62
84947;BME280;75241;51.692;5.196;2024-02-14T12:26:02;101612.00;;;10.96;89.62
84947;BME280;75241;51.692;5.196;2024-02-14T12:28:29;101613.69;;;10.99;89.63
84947;BME280;75241;51.692;5.196;2024-02-14T12:30:58;101610.38;;;10.94;89.76
84947;BME280;75241;51.692;5.196;2024-02-14T12:33:27;101615.50;;;10.97;89.76
84947;BME280;75241;51.692;5.196;2024-02-14T12:35:56;101614.63;;;10.96;89.75
84947;BME280;75241;51.692;5.196;2024-02-14T12:38:22;101614.63;;;10.96;89.95
84947;BME280;75241;51.692;5.196;2024-02-14T12:40:51;101613.72;;;10.97;89.97
84947;BME280;75241;51.692;5.196;2024-02-14T12:43:20;101605.00;;;10.97;89.96
84947;BME280;75241;51.692;5.196;2024-02-14T12:45:45;101608.47;;;10.97;90.05
84947;BME280;75241;51.692;5.196;2024-02-14T12:48:12;101621.56;;;10.99;90.02
84947;BME280;75241;51.692;5.196;2024-02-14T12:50:39;101605.84;;;10.97;89.91
84947;BME280;75241;51.692;5.196;2024-02-14T12:53:09;101610.97;;;11.00;89.82
84947;BME280;75241;51.692;5.196;2024-02-14T12:55:35;101598.69;;;11.01;90.15
84947;BME280;75241;51.692;5.196;2024-02-14T12:58:01;101609.94;;;11.05;90.01
84947;BME280;75241;51.692;5.196;2024-02-14T13:00:27;101598.66;;;11.02;90.11